Time;durP1;ratioP1;P1;durP2;ratioP2;P2;SDS_P1;SDS_P2;PMS_P1;PMS_P2;Temp;Humidity;BMP_temperature;BMP_pressure;BME280_temperature;BME280_humidity;BME280_pressure;Samples;Min_cycle;Max_cycle;Signal;HPM_P1;HPM_P2
2022/12/20 00:00:04;;;;;;;8.25;4.72;;;;;;;;;;5092748;28;20064;-81
2022/12/20 00:02:30;;;;;;;8.00;4.80;;;;;;;;;;5095397;28;20142;-81
2022/12/20 00:04:56;;;;;;;9.80;5.05;;;;;;;;;;5115292;28;20117;-81
2022/12/20 00:07:22;;;;;;;8.02;5.00;;;;;;;;;;5095132;28;20052;-81
2022/12/20 00:09:48;;;;;;;7.95;5.55;;;;;;;;;;5118289;27;20500;-81
2022/12/20 00:12:14;;;;;;;7.45;5.05;;;;;;;;;;5112289;28;20572;-81
2022/12/20 00:14:40;;;;;;;7.28;4.95;;;;;;;;;;5113774;28;20055;-81
2022/12/20 00:17:06;;;;;;;10.98;5.25;;;;;;;;;;5110112;28;20055;-81
2022/12/20 00:19:33;;;;;;;7.93;4.20;;;;;;;;;;5094750;28;20048;-82
2022/12/20 00:21:59;;;;;;;13.77;4.85;;;;;;;;;;5095812;28;20056;-81
2022/12/20 00:24:25;;;;;;;7.90;5.25;;;;;;;;;;5095796;28;20048;-81
2022/12/20 00:26:51;;;;;;;6.05;4.20;;;;;;;;;;5095369;28;20127;-81
2022/12/20 00:29:17;;;;;;;8.75;4.72;;;;;;;;;;5103705;28;20048;-81
2022/12/20 00:31:43;;;;;;;10.73;4.70;;;;;;;;;;5114338;27;20043;-81
2022/12/20 00:34:09;;;;;;;8.13;4.60;;;;;;;;;;5110087;28;20508;-81
2022/12/20 00:36:35;;;;;;;10.95;4.78;;;;;;;;;;5093115;28;20048;-81
2022/12/20 00:39:01;;;;;;;8.25;4.30;;;;;;;;;;5094228;28;20051;-81
2022/12/20 00:41:29;;;;;;;8.40;4.45;;;;;;;;;;5093811;28;20420;-81
2022/12/20 00:43:55;;;;;;;9.13;4.60;;;;;;;;;;5095129;28;20441;-82
2022/12/20 00:46:22;;;;;;;7.30;4.55;;;;;;;;;;5076232;28;20052;-82
2022/12/20 00:48:48;;;;;;;5.93;4.32;;;;;;;;;;5092200;28;20056;-81
2022/12/20 00:51:16;;;;;;;10.98;4.68;;;;;;;;;;5092582;28;20400;-82
2022/12/20 00:53:42;;;;;;;6.18;4.07;;;;;;;;;;5092935;28;20446;-81
2022/12/20 00:56:09;;;;;;;8.23;4.63;;;;;;;;;;5093057;28;20404;-81
2022/12/20 00:58:36;;;;;;;6.57;4.20;;;;;;;;;;5094129;28;20467;-81
2022/12/20 01:01:03;;;;;;;10.02;5.10;;;;;;;;;;5092896;28;20100;-81
2022/12/20 01:03:29;;;;;;;7.68;4.32;;;;;;;;;;5093826;28;20062;-81
2022/12/20 01:05:56;;;;;;;6.45;4.03;;;;;;;;;;5093820;28;20358;-81
2022/12/20 01:08:23;;;;;;;8.38;4.50;;;;;;;;;;5092675;28;20060;-81
2022/12/20 01:10:59;;;;;;;7.10;4.20;;;;;;;;;;5093858;28;20048;-81
2022/12/20 01:13:26;;;;;;;7.85;4.60;;;;;;;;;;5099674;28;20047;-82
2022/12/20 01:15:52;;;;;;;8.93;4.05;;;;;;;;;;5114906;28;20051;-82
2022/12/20 01:18:18;;;;;;;9.65;4.10;;;;;;;;;;5098943;28;20056;-82
2022/12/20 01:20:44;;;;;;;7.93;4.13;;;;;;;;;;5107929;28;20054;-83
2022/12/20 01:23:10;;;;;;;7.80;4.15;;;;;;;;;;5129766;27;20105;-82
2022/12/20 01:25:36;;;;;;;7.90;4.07;;;;;;;;;;5128718;27;20050;-82
2022/12/20 01:28:02;;;;;;;7.72;3.90;;;;;;;;;;5111366;28;20047;-82
2022/12/20 01:30:28;;;;;;;7.35;4.60;;;;;;;;;;5121208;27;20047;-82
2022/12/20 01:32:54;;;;;;;6.18;3.85;;;;;;;;;;5119662;27;20048;-83
2022/12/20 01:35:21;;;;;;;6.90;4.03;;;;;;;;;;5116167;27;20048;-82
2022/12/20 01:37:47;;;;;;;6.40;4.07;;;;;;;;;;5098031;28;20048;-82
2022/12/20 01:40:13;;;;;;;6.40;4.40;;;;;;;;;;5093140;28;20546;-82
2022/12/20 01:42:39;;;;;;;7.85;4.35;;;;;;;;;;5116937;27;20344;-82
2022/12/20 01:45:07;;;;;;;6.60;4.20;;;;;;;;;;5121437;27;20047;-82
2022/12/20 01:47:36;;;;;;;8.55;3.92;;;;;;;;;;5112600;28;20055;-83
2022/12/20 01:50:04;;;;;;;6.65;4.18;;;;;;;;;;5109981;28;20109;-82
2022/12/20 01:52:39;;;;;;;8.43;4.40;;;;;;;;;;5113856;28;20349;-82
2022/12/20 01:55:08;;;;;;;8.55;3.92;;;;;;;;;;5112534;28;20055;-82
2022/12/20 01:57:37;;;;;;;6.30;3.92;;;;;;;;;;5112061;28;20130;-82
2022/12/20 02:00:04;;;;;;;8.00;4.28;;;;;;;;;;5109765;28;20295;-82
2022/12/20 02:02:31;;;;;;;8.48;4.07;;;;;;;;;;5095162;28;20047;-82
2022/12/20 02:04:58;;;;;;;5.38;3.58;;;;;;;;;;5094857;28;20048;-82
2022/12/20 02:07:26;;;;;;;7.72;4.10;;;;;;;;;;5113882;28;20100;-82
2022/12/20 02:09:53;;;;;;;7.85;4.03;;;;;;;;;;5110804;28;20097;-82
2022/12/20 02:12:21;;;;;;;7.53;4.30;;;;;;;;;;5112744;28;20043;-82
2022/12/20 02:14:53;;;;;;;5.95;3.95;;;;;;;;;;5115354;27;20108;-83
2022/12/20 02:17:30;;;;;;;8.38;4.28;;;;;;;;;;5110459;27;20496;-82
2022/12/20 02:20:14;;;;;;;7.28;4.13;;;;;;;;;;5066142;28;20507;-82
2022/12/20 02:22:43;;;;;;;7.57;3.83;;;;;;;;;;5094819;28;20109;-82
2022/12/20 02:25:19;;;;;;;6.65;3.78;;;;;;;;;;5094707;28;20083;-82
2022/12/20 02:27:51;;;;;;;6.35;3.72;;;;;;;;;;5079007;28;20048;-82
2022/12/20 02:30:18;;;;;;;6.90;4.10;;;;;;;;;;5102097;28;20131;-82
2022/12/20 02:32:48;;;;;;;5.65;3.92;;;;;;;;;;5102014;28;20048;-82
2022/12/20 02:35:18;;;;;;;5.38;3.58;;;;;;;;;;5092410;28;20127;-83
2022/12/20 02:37:51;;;;;;;7.35;3.65;;;;;;;;;;5092613;28;20411;-82
2022/12/20 02:40:20;;;;;;;7.18;4.10;;;;;;;;;;5091290;28;20052;-82
2022/12/20 02:42:47;;;;;;;6.03;3.90;;;;;;;;;;5100602;28;20473;-83
2022/12/20 02:45:14;;;;;;;7.15;4.30;;;;;;;;;;5098492;28;20048;-82
2022/12/20 02:47:45;;;;;;;6.32;4.00;;;;;;;;;;5092668;28;20349;-83
2022/12/20 02:50:12;;;;;;;5.63;3.85;;;;;;;;;;5093693;28;20127;-82
2022/12/20 02:52:38;;;;;;;5.95;3.92;;;;;;;;;;5097574;28;20109;-82
2022/12/20 02:55:05;;;;;;;5.75;3.70;;;;;;;;;;5078856;28;20550;-83
2022/12/20 02:57:31;;;;;;;6.10;3.92;;;;;;;;;;5095754;28;20109;-82
2022/12/20 03:00:04;;;;;;;7.40;4.60;;;;;;;;;;5078247;28;20450;-83
2022/12/20 03:03:21;;;;;;;5.85;4.03;;;;;;;;;;5077606;28;20131;-82
2022/12/20 03:05:17;;;;;;;6.03;3.80;;;;;;;;;;5096323;28;20044;-82
2022/12/20 03:07:43;;;;;;;7.80;4.28;;;;;;;;;;5095614;28;20134;-82
2022/12/20 03:10:10;;;;;;;7.20;4.00;;;;;;;;;;5096899;28;20047;-82
2022/12/20 03:12:36;;;;;;;5.32;3.75;;;;;;;;;;5096673;28;20058;-82
2022/12/20 03:15:02;;;;;;;6.43;4.68;;;;;;;;;;5094724;28;20052;-82
2022/12/20 03:17:28;;;;;;;6.53;4.07;;;;;;;;;;5094502;28;20105;-83
2022/12/20 03:19:54;;;;;;;6.78;4.07;;;;;;;;;;5095590;28;20063;-82
2022/12/20 03:22:20;;;;;;;7.55;3.88;;;;;;;;;;5096997;28;20048;-83
2022/12/20 03:24:46;;;;;;;8.75;4.47;;;;;;;;;;5111186;27;20052;-82
2022/12/20 03:27:12;;;;;;;7.43;4.28;;;;;;;;;;5116860;27;20524;-82
2022/12/20 03:29:38;;;;;;;7.53;4.30;;;;;;;;;;5118476;27;20475;-82
2022/12/20 03:32:04;;;;;;;6.28;3.95;;;;;;;;;;5133798;27;20080;-82
2022/12/20 03:34:31;;;;;;;7.97;4.30;;;;;;;;;;5134236;27;20134;-82
2022/12/20 03:36:57;;;;;;;7.50;4.50;;;;;;;;;;5095372;28;20496;-83
2022/12/20 03:39:23;;;;;;;6.80;4.30;;;;;;;;;;5089950;28;20058;-82
2022/12/20 03:41:49;;;;;;;7.45;4.00;;;;;;;;;;5117420;27;20043;-82
2022/12/20 03:44:15;;;;;;;8.35;4.00;;;;;;;;;;5115837;28;20380;-81
2022/12/20 03:46:43;;;;;;;7.50;4.22;;;;;;;;;;5098549;27;20043;-82
2022/12/20 03:49:09;;;;;;;7.53;4.18;;;;;;;;;;5106793;28;20146;-82
2022/12/20 03:51:35;;;;;;;8.00;4.10;;;;;;;;;;5108880;27;20047;-82
2022/12/20 03:54:02;;;;;;;6.50;4.22;;;;;;;;;;5135332;27;20495;-81
2022/12/20 03:56:28;;;;;;;7.57;4.65;;;;;;;;;;5135830;27;20051;-82
2022/12/20 03:58:54;;;;;;;9.23;4.72;;;;;;;;;;5135386;27;20035;-81
2022/12/20 04:01:25;;;;;;;6.82;4.45;;;;;;;;;;5115020;27;20070;-81
2022/12/20 04:03:51;;;;;;;5.75;3.97;;;;;;;;;;5132862;27;20065;-82
2022/12/20 04:06:17;;;;;;;6.75;3.80;;;;;;;;;;5114089;27;20047;-81
2022/12/20 04:08:44;;;;;;;6.88;3.95;;;;;;;;;;5099563;27;20055;-81
2022/12/20 04:11:16;;;;;;;6.88;4.03;;;;;;;;;;5097864;28;20051;-82
2022/12/20 04:13:43;;;;;;;8.63;4.22;;;;;;;;;;5117218;27;20124;-81
2022/12/20 04:16:10;;;;;;;7.82;4.40;;;;;;;;;;5113927;28;20051;-82
2022/12/20 04:18:36;;;;;;;7.38;4.57;;;;;;;;;;5107255;27;20074;-81
2022/12/20 04:21:03;;;;;;;9.48;4.45;;;;;;;;;;5096662;28;20052;-82
2022/12/20 04:23:29;;;;;;;7.60;4.30;;;;;;;;;;5117046;27;20063;-81
2022/12/20 04:25:55;;;;;;;7.45;4.45;;;;;;;;;;5098236;28;20047;-82
2022/12/20 04:28:21;;;;;;;6.82;4.68;;;;;;;;;;5097991;28;20101;-81
2022/12/20 04:30:47;;;;;;;7.80;4.40;;;;;;;;;;5094087;28;20210;-82
2022/12/20 04:33:13;;;;;;;7.63;4.45;;;;;;;;;;5114250;27;20261;-82
2022/12/20 04:35:39;;;;;;;6.35;3.92;;;;;;;;;;5116718;27;20047;-82
2022/12/20 04:38:05;;;;;;;8.15;4.68;;;;;;;;;;5130644;27;20135;-82
2022/12/20 04:40:31;;;;;;;7.15;4.13;;;;;;;;;;5114780;28;20047;-82
2022/12/20 04:42:57;;;;;;;8.20;4.28;;;;;;;;;;5123001;27;20050;-81
2022/12/20 04:45:23;;;;;;;6.50;4.60;;;;;;;;;;5119222;27;20058;-81
2022/12/20 04:47:49;;;;;;;6.97;4.13;;;;;;;;;;5113853;28;20047;-82
2022/12/20 04:50:15;;;;;;;8.38;4.40;;;;;;;;;;5113607;28;20051;-81
2022/12/20 04:55:26;;;;;;;8.02;4.15;;;;;;;;;;5114606;28;20130;-81
2022/12/20 04:57:52;;;;;;;7.45;4.75;;;;;;;;;;5113220;28;20055;-82
2022/12/20 05:00:18;;;;;;;9.57;4.82;;;;;;;;;;5110820;28;20058;-81
2022/12/20 05:02:44;;;;;;;6.30;4.20;;;;;;;;;;5095151;28;20492;-81
2022/12/20 05:05:10;;;;;;;8.50;4.45;;;;;;;;;;5113656;28;20545;-81
2022/12/20 05:07:36;;;;;;;8.27;4.70;;;;;;;;;;5114969;28;20465;-81
2022/12/20 05:10:02;;;;;;;7.18;4.63;;;;;;;;;;5096134;28;20083;-81
2022/12/20 05:12:28;;;;;;;7.28;4.53;;;;;;;;;;5095726;28;20044;-81
2022/12/20 05:14:55;;;;;;;7.97;4.70;;;;;;;;;;5095921;28;20055;-81
2022/12/20 05:17:21;;;;;;;6.60;4.53;;;;;;;;;;5097010;28;20393;-81
2022/12/20 05:19:47;;;;;;;7.07;4.53;;;;;;;;;;5114119;28;20054;-81
2022/12/20 05:27:42;;;;;;;7.50;4.50;;;;;;;;;;5114713;27;20390;-81
2022/12/20 05:30:09;;;;;;;7.28;4.38;;;;;;;;;;5115671;27;20051;-81
2022/12/20 05:32:35;;;;;;;8.77;4.50;;;;;;;;;;5132559;27;20088;-81
2022/12/20 05:35:01;;;;;;;9.77;4.57;;;;;;;;;;5115732;27;20141;-81
2022/12/20 05:37:27;;;;;;;8.40;4.57;;;;;;;;;;5123734;27;20054;-81
2022/12/20 05:39:53;;;;;;;9.38;4.55;;;;;;;;;;5114766;28;20047;-81
2022/12/20 05:42:19;;;;;;;7.72;4.28;;;;;;;;;;5114150;27;20130;-81
2022/12/20 05:44:45;;;;;;;6.55;4.35;;;;;;;;;;5113200;27;20483;-82
2022/12/20 05:47:11;;;;;;;9.13;4.43;;;;;;;;;;5096247;28;20289;-81
2022/12/20 05:49:37;;;;;;;6.65;4.40;;;;;;;;;;5078196;28;20503;-81
2022/12/20 05:52:04;;;;;;;6.13;3.78;;;;;;;;;;5082211;27;20039;-81
2022/12/20 05:54:30;;;;;;;9.52;4.25;;;;;;;;;;5133747;27;20082;-81
2022/12/20 05:56:56;;;;;;;6.78;4.25;;;;;;;;;;5113749;27;20506;-82
2022/12/20 05:59:22;;;;;;;9.80;4.13;;;;;;;;;;5114417;27;20051;-81
2022/12/20 06:01:48;;;;;;;6.50;3.78;;;;;;;;;;5129211;27;20130;-81
2022/12/20 06:04:14;;;;;;;6.05;3.88;;;;;;;;;;5110559;27;20058;-81
2022/12/20 06:06:40;;;;;;;6.40;4.10;;;;;;;;;;5113454;27;20048;-82
2022/12/20 06:09:06;;;;;;;5.65;3.67;;;;;;;;;;5131861;27;20047;-82
2022/12/20 06:11:32;;;;;;;5.60;4.05;;;;;;;;;;5113484;27;20502;-82
2022/12/20 06:13:58;;;;;;;7.97;3.55;;;;;;;;;;5099066;28;20399;-82
2022/12/20 06:16:25;;;;;;;6.35;3.85;;;;;;;;;;5113755;27;20458;-82
2022/12/20 06:18:51;;;;;;;6.63;3.90;;;;;;;;;;5090127;28;20050;-81
2022/12/20 06:21:17;;;;;;;4.68;3.83;;;;;;;;;;5113637;28;20245;-82
2022/12/20 06:23:43;;;;;;;7.57;4.00;;;;;;;;;;5084552;28;20059;-81
2022/12/20 06:26:09;;;;;;;5.82;3.90;;;;;;;;;;5112920;28;20066;-81
2022/12/20 06:28:41;;;;;;;7.22;4.20;;;;;;;;;;5123403;27;20132;-83
2022/12/20 06:31:08;;;;;;;6.15;3.80;;;;;;;;;;5090874;28;20128;-82
2022/12/20 06:33:35;;;;;;;7.35;4.00;;;;;;;;;;5085483;28;20106;-82
2022/12/20 06:36:01;;;;;;;5.72;3.95;;;;;;;;;;5091720;28;20079;-82
2022/12/20 06:38:27;;;;;;;6.15;3.80;;;;;;;;;;5090801;28;20481;-82
2022/12/20 06:40:53;;;;;;;7.13;3.67;;;;;;;;;;5074828;28;20063;-82
2022/12/20 06:43:19;;;;;;;6.93;4.45;;;;;;;;;;5074288;28;20043;-82
2022/12/20 06:45:45;;;;;;;5.38;3.50;;;;;;;;;;5073973;28;20047;-82
2022/12/20 06:48:11;;;;;;;5.40;3.67;;;;;;;;;;5086066;28;20094;-82
2022/12/20 06:50:40;;;;;;;6.85;3.90;;;;;;;;;;5111376;28;20043;-82
2022/12/20 06:53:07;;;;;;;6.95;3.97;;;;;;;;;;5074760;28;20087;-83
2022/12/20 06:55:33;;;;;;;8.18;4.00;;;;;;;;;;5110869;28;20054;-83
2022/12/20 06:57:59;;;;;;;5.70;3.97;;;;;;;;;;5094445;28;20459;-83
2022/12/20 07:00:26;;;;;;;9.43;3.95;;;;;;;;;;5095024;28;20060;-82
2022/12/20 07:02:52;;;;;;;7.88;4.53;;;;;;;;;;5092200;28;20121;-83
2022/12/20 07:05:18;;;;;;;8.32;4.18;;;;;;;;;;5108849;28;20438;-82
2022/12/20 07:07:44;;;;;;;6.13;4.10;;;;;;;;;;5134450;28;20047;-83
2022/12/20 07:10:10;;;;;;;5.75;4.45;;;;;;;;;;5115015;28;20047;-83
2022/12/20 07:12:36;;;;;;;7.47;4.50;;;;;;;;;;5114065;28;20043;-83
2022/12/20 07:15:02;;;;;;;7.28;4.50;;;;;;;;;;5113767;28;20579;-82
2022/12/20 07:17:29;;;;;;;6.95;4.82;;;;;;;;;;5109197;28;20407;-83
2022/12/20 07:19:55;;;;;;;8.13;5.30;;;;;;;;;;5094845;28;20051;-83
2022/12/20 07:22:21;;;;;;;8.88;5.22;;;;;;;;;;5094384;28;20044;-83
2022/12/20 07:24:47;;;;;;;8.23;5.35;;;;;;;;;;5104562;28;20074;-83
2022/12/20 07:27:13;;;;;;;8.40;5.20;;;;;;;;;;5113208;28;20051;-83
2022/12/20 07:29:40;;;;;;;7.18;5.88;;;;;;;;;;5094969;28;20445;-83
2022/12/20 07:32:07;;;;;;;8.68;5.18;;;;;;;;;;5113292;28;20048;-82
2022/12/20 07:34:33;;;;;;;6.95;5.03;;;;;;;;;;5104988;28;20151;-83
2022/12/20 07:36:59;;;;;;;7.38;5.55;;;;;;;;;;5098622;28;20055;-83
2022/12/20 07:39:25;;;;;;;7.65;5.55;;;;;;;;;;5115729;28;20040;-83
2022/12/20 07:41:55;;;;;;;8.30;5.45;;;;;;;;;;5114405;28;20146;-83
2022/12/20 07:44:24;;;;;;;8.25;5.95;;;;;;;;;;5115476;28;20097;-82
2022/12/20 07:46:50;;;;;;;7.95;5.97;;;;;;;;;;5115763;27;20047;-82
2022/12/20 07:49:16;;;;;;;8.35;6.10;;;;;;;;;;5096889;28;20239;-82
2022/12/20 07:51:45;;;;;;;9.05;5.78;;;;;;;;;;5115812;28;20046;-82
2022/12/20 07:54:12;;;;;;;8.23;5.90;;;;;;;;;;5114567;28;20404;-80
2022/12/20 07:56:41;;;;;;;8.07;6.38;;;;;;;;;;5097186;28;20478;-82
2022/12/20 07:59:07;;;;;;;9.02;5.95;;;;;;;;;;5096981;28;20418;-77
2022/12/20 08:01:33;;;;;;;7.97;6.00;;;;;;;;;;5096807;28;20051;-79
2022/12/20 08:04:05;;;;;;;8.23;6.70;;;;;;;;;;5114096;27;20054;-79
2022/12/20 08:06:31;;;;;;;8.07;6.70;;;;;;;;;;5117296;27;20078;-78
2022/12/20 08:09:00;;;;;;;8.52;6.18;;;;;;;;;;5112011;28;20052;-79
2022/12/20 08:11:27;;;;;;;10.05;6.13;;;;;;;;;;5093568;28;20104;-80
2022/12/20 08:13:53;;;;;;;12.43;6.55;;;;;;;;;;5093361;28;20048;-81
2022/12/20 08:16:19;;;;;;;11.80;6.15;;;;;;;;;;5110142;28;20063;-80
2022/12/20 08:18:48;;;;;;;9.60;6.10;;;9.00;99.90;;;;;;5105349;27;20142;-81
2022/12/20 08:21:15;;;;;;;7.40;5.63;;;10.90;99.90;;;;;;5114580;28;20043;-81
2022/12/20 08:23:41;;;;;;;8.65;6.38;;;10.90;99.90;;;;;;5115036;28;20105;-82
2022/12/20 08:26:06;;;;;;;8.50;5.85;;;10.80;99.90;;;;;;5113498;28;20501;-82
2022/12/20 08:28:32;;;;;;;9.00;5.50;;;10.90;99.90;;;;;;5114907;28;20051;-81
2022/12/20 08:31:08;;;;;;;8.25;5.75;;;10.90;99.90;;;;;;5124092;27;20083;-82
2022/12/20 08:33:35;;;;;;;8.07;5.10;;;10.90;99.90;;;;;;5100255;28;20051;-82
2022/12/20 08:36:04;;;;;;;7.10;4.65;;;11.00;99.90;;;;;;5076108;28;20052;-82
2022/12/20 08:38:30;;;;;;;8.15;4.97;;;11.00;99.90;;;;;;5094228;28;20056;-83
2022/12/20 08:41:09;;;;;;;7.97;5.10;;;11.00;99.90;;;;;;5076088;28;20138;-82
2022/12/20 08:43:35;;;;;;;6.18;4.78;;;11.00;99.90;;;;;;5075963;28;20112;-82
2022/12/20 08:46:01;;;;;;;6.65;4.63;;;;;;;;;;5075964;28;20123;-82
2022/12/20 08:48:27;;;;;;;6.82;4.45;;;;;;;;;;5075103;28;20044;-82
2022/12/20 08:50:58;;;;;;;8.25;4.60;;;11.00;99.90;;;;;;5094111;28;20040;-82
2022/12/20 08:53:24;;;;;;;9.45;5.20;;;11.00;99.90;;;;;;5094038;28;20493;-82
2022/12/20 08:55:50;;;;;;;7.35;4.60;;;11.00;99.90;;;;;;5075320;28;20136;-83
2022/12/20 08:58:16;;;;;;;5.97;4.25;;;11.00;99.90;;;;;;5076655;28;20477;-82
2022/12/20 09:00:42;;;;;;;6.90;4.28;;;11.00;99.90;;;;;;5094528;28;20047;-82
2022/12/20 09:03:10;;;;;;;6.68;3.83;;;11.00;99.90;;;;;;5074701;28;20052;-82
2022/12/20 09:05:41;;;;;;;6.32;4.40;;;11.10;99.90;;;;;;5074912;28;20052;-82
2022/12/20 09:08:07;;;;;;;7.07;4.10;;;11.10;99.90;;;;;;5093873;28;20048;-83
2022/12/20 09:10:33;;;;;;;6.95;4.15;;;11.10;99.90;;;;;;5075667;28;20101;-82
2022/12/20 09:12:58;;;;;;;7.10;3.88;;;11.10;99.90;;;;;;5093502;28;20389;-82
2022/12/20 09:15:26;;;;;;;5.82;3.80;;;11.10;99.90;;;;;;5075288;28;20055;-82
2022/12/20 09:17:52;;;;;;;6.22;4.18;;;11.10;99.90;;;;;;5093303;28;20052;-82
2022/12/20 09:20:18;;;;;;;8.48;3.80;;;11.20;99.90;;;;;;5094202;28;20058;-82
2022/12/20 09:22:43;;;;;;;5.95;3.72;;;11.20;99.90;;;;;;5074669;28;20040;-83
2022/12/20 09:25:09;;;;;;;6.13;3.60;;;11.20;99.90;;;;;;5095769;28;20047;-82
2022/12/20 09:27:35;;;;;;;6.03;3.70;;;11.20;99.90;;;;;;5095442;28;20052;-82
2022/12/20 09:30:01;;;;;;;6.70;3.53;;;11.20;99.90;;;;;;5116949;27;20051;-82
2022/12/20 09:32:26;;;;;;;7.82;3.60;;;11.20;99.90;;;;;;5099026;27;20043;-82
2022/12/20 09:34:52;;;;;;;6.00;3.67;;;11.30;99.90;;;;;;5134094;27;20057;-83
2022/12/20 09:37:18;;;;;;;9.25;3.67;;;11.30;99.90;;;;;;5132359;27;20483;-83
2022/12/20 09:39:43;;;;;;;5.65;3.28;;;11.30;99.90;;;;;;5117796;27;20047;-83
2022/12/20 09:42:09;;;;;;;6.97;3.70;;;11.40;99.90;;;;;;5099571;27;20055;-83
2022/12/20 09:44:39;;;;;;;6.53;3.60;;;11.40;99.90;;;;;;5118130;27;20051;-83
2022/12/20 09:47:16;;;;;;;8.02;3.63;;;11.40;99.90;;;;;;5088207;28;20055;-84
2022/12/20 09:49:50;;;;;;;4.93;3.45;;;11.50;99.90;;;;;;5113118;28;20431;-83
2022/12/20 09:52:33;;;;;;;4.78;3.20;;;11.40;99.90;;;;;;5074215;28;20052;-83
2022/12/20 09:55:14;;;;;;;6.07;3.33;;;11.50;99.90;;;;;;5065173;28;20058;-83
2022/12/20 09:58:08;;;;;;;6.93;3.17;;;11.60;99.90;;;;;;5095038;28;20051;-83
2022/12/20 10:00:39;;;;;;;6.40;3.33;;;11.60;99.90;;;;;;5094536;28;20047;-83
2022/12/20 10:03:06;;;;;;;5.65;3.38;;;;;;;;;;5078812;28;20435;-83
2022/12/20 10:05:58;;;;;;;5.03;3.20;;;;;;;;;;5121222;27;20057;-82
2022/12/20 10:08:43;;;;;;;5.70;3.55;;;;;;;;;;5111317;27;20051;-82
2022/12/20 10:11:34;;;;;;;4.72;2.75;;;11.60;99.90;;;;;;5133674;27;20055;-82
2022/12/20 10:14:00;;;;;;;7.50;3.45;;;;;;;;;;5113580;27;20047;-83
2022/12/20 10:16:36;;;;;;;4.68;3.20;;;;;;;;;;5133445;27;20472;-82
2022/12/20 10:19:02;;;;;;;5.65;3.50;;;;;;;;;;5092972;28;20122;-83
2022/12/20 10:21:37;;;;;;;8.32;3.75;;;;;;;;;;5073909;28;20059;-83
2022/12/20 10:24:08;;;;;;;5.68;3.72;;;;;;;;;;5091069;28;20051;-82
2022/12/20 10:26:34;;;;;;;6.53;3.20;;;;;;;;;;5113511;27;20067;-83
2022/12/20 10:29:00;;;;;;;8.95;3.30;;;;;;;;;;5094827;28;20135;-82
2022/12/20 10:31:27;;;;;;;5.50;3.30;;;;;;;;;;5112532;28;20051;-82
2022/12/20 10:33:53;;;;;;;6.38;3.35;;;;;;;;;;5112864;28;20044;-82
2022/12/20 10:36:19;;;;;;;5.22;3.22;;;;;;;;;;5113736;28;20044;-82
2022/12/20 10:38:48;;;;;;;6.10;3.22;;;;;;;;;;5106266;28;20082;-82
2022/12/20 10:41:16;;;;;;;5.53;3.22;;;;;;;;;;5095741;28;20430;-83
2022/12/20 10:43:43;;;;;;;5.38;3.08;;;;;;;;;;5101472;28;20081;-85
2022/12/20 10:46:10;;;;;;;4.57;3.10;;;;;;;;;;5114854;28;20226;-84
2022/12/20 10:48:36;;;;;;;5.30;3.50;;;;;;;;;;5114628;28;20047;-83
2022/12/20 10:51:08;;;;;;;6.20;3.33;;;;;;;;;;5114363;28;20047;-83
2022/12/20 10:53:35;;;;;;;5.88;2.80;;;;;;;;;;5131626;28;20150;-82
2022/12/20 10:56:13;;;;;;;5.95;3.40;;;;;;;;;;5131145;28;20087;-83
2022/12/20 10:58:39;;;;;;;5.32;3.33;;;11.70;99.90;;;;;;5114497;28;20367;-84
2022/12/20 11:01:14;;;;;;;7.57;2.97;;;11.70;99.90;;;;;;5095142;28;20051;-83
2022/12/20 11:03:59;;;;;;;5.60;3.30;;;11.70;99.90;;;;;;5095914;28;20569;-83
2022/12/20 11:06:45;;;;;;;5.10;3.13;;;11.70;99.90;;;;;;5114458;28;20407;-82
2022/12/20 11:09:25;;;;;;;6.78;3.65;;;11.70;99.90;;;;;;5114592;28;20090;-82
2022/12/20 11:12:10;;;;;;;6.72;3.10;;;11.70;99.90;;;;;;5118230;27;20506;-81
2022/12/20 11:14:37;;;;;;;5.72;3.22;;;;;;;;;;5118560;27;20051;-82
2022/12/20 11:17:34;;;;;;;5.07;3.45;;;11.70;99.90;;;;;;5114702;27;20055;-82
2022/12/20 11:20:01;;;;;;;6.25;3.67;;;;;;;;;;5095288;28;20043;-82
2022/12/20 11:22:43;;;;;;;8.65;3.75;;;;;;;;;;5095472;28;20044;-83
2022/12/20 11:25:24;;;;;;;5.97;3.50;;;;;;;;;;5108111;28;20059;-82
2022/12/20 11:27:56;;;;;;;8.80;3.55;;;;;;;;;;5098878;28;20055;-82
2022/12/20 11:30:30;;;;;;;6.00;3.40;;;;;;;;;;5097120;28;20132;-82
2022/12/20 11:33:12;;;;;;;7.30;3.70;;;;;;;;;;5115706;28;20048;-81
2022/12/20 11:35:55;;;;;;;7.70;3.53;;;;;;;;;;5099942;28;20047;-84
2022/12/20 11:38:33;;;;;;;5.18;3.28;;;;;;;;;;5095406;28;20154;-87
2022/12/20 11:41:02;;;;;;;6.15;3.30;;;;;;;;;;5096407;27;20083;-87
2022/12/20 11:43:34;;;;;;;6.47;3.20;;;11.60;99.90;;;;;;5111832;28;20055;-87
2022/12/20 11:46:34;;;;;;;4.93;3.20;;;11.50;99.90;;;;;;5095341;28;20043;-87
2022/12/20 11:49:35;;;;;;;6.00;3.47;;;11.50;99.90;;;;;;5097773;27;20047;-87
2022/12/20 11:52:09;;;;;;;4.63;3.25;;;11.40;99.90;;;;;;5030974;28;20048;-84
2022/12/20 11:54:43;;;;;;;5.30;3.10;;;11.40;99.90;;;;;;5091518;28;20048;-85
2022/12/20 11:57:16;;;;;;;6.95;3.58;;;;;;;;;;5090205;28;20060;-84
2022/12/20 11:59:49;;;;;;;6.13;3.50;;;;;;;;;;5094542;28;20074;-84
2022/12/20 12:02:34;;;;;;;7.57;3.60;;;;;;;;;;5093923;28;20066;-84
2022/12/20 12:05:05;;;;;;;6.70;3.53;;;;;;;;;;5086681;28;20193;-84
2022/12/20 12:07:33;;;;;;;5.78;3.53;;;;;;;;;;5109034;28;20055;-83
2022/12/20 12:10:17;;;;;;;5.47;4.03;;;;;;;;;;5115781;27;20046;-84
2022/12/20 12:12:44;;;;;;;8.23;3.90;;;;;;;;;;5115427;27;20043;-84
2022/12/20 12:15:11;;;;;;;7.40;3.92;;;;;;;;;;5134547;27;20047;-84
2022/12/20 12:17:43;;;;;;;8.80;3.92;;;;;;;;;;5111224;27;20123;-84
2022/12/20 12:20:21;;;;;;;6.18;4.03;;;;;;;;;;5109770;27;20142;-84
2022/12/20 12:22:49;;;;;;;6.72;4.20;;;;;;;;;;5082642;27;20055;-85
2022/12/20 12:25:17;;;;;;;7.63;3.47;;;;;;;;;;5117688;27;20138;-84
2022/12/20 12:27:43;;;;;;;8.95;4.35;;;;;;;;;;5116173;27;20376;-84
2022/12/20 12:30:15;;;;;;;5.97;4.00;;;;;;;;;;5100734;28;20052;-84
2022/12/20 12:32:45;;;;;;;7.35;4.28;;;;;;;;;;5109092;28;20407;-83
2022/12/20 12:35:31;;;;;;;7.28;4.53;;;;;;;;;;5099060;28;20055;-83
2022/12/20 12:38:04;;;;;;;8.90;4.63;;;;;;;;;;5062298;28;20048;-83
2022/12/20 12:40:41;;;;;;;8.40;4.32;;;;;;;;;;5092582;28;20048;-83
2022/12/20 12:43:20;;;;;;;8.02;4.03;;;;;;;;;;5091830;28;20388;-83
2022/12/20 12:45:52;;;;;;;6.97;4.20;;;;;;;;;;5092181;28;20044;-83
2022/12/20 12:48:27;;;;;;;8.13;4.93;;;;;;;;;;5092851;28;20056;-83
2022/12/20 12:50:55;;;;;;;6.82;4.70;;;;;;;;;;5093383;28;20135;-83
2022/12/20 12:53:34;;;;;;;7.03;4.78;;;;;;;;;;5103145;28;20070;-83
2022/12/20 12:56:20;;;;;;;5.47;4.68;;;;;;;;;;5097169;28;20400;-83
2022/12/20 12:59:06;;;;;;;7.03;4.90;;;;;;;;;;5099955;28;20118;-84
2022/12/20 13:01:52;;;;;;;8.13;5.32;;;;;;;;;;5115809;27;20172;-83
2022/12/20 13:04:18;;;;;;;;;;;;;;;;;;5111034;28;20043;-83
2022/12/20 13:06:47;;;;;;;7.28;5.55;;;;;;;;;;5112651;28;19919;-83
2022/12/20 13:09:26;;;;;;;6.93;5.15;;;;;;;;;;5112575;28;20154;-83
2022/12/20 13:11:56;;;;;;;8.40;5.78;;;;;;;;;;5113022;28;20055;-83
2022/12/20 13:14:26;;;;;;;6.95;5.03;;;;;;;;;;5112738;28;20472;-83
2022/12/20 13:16:55;;;;;;;7.90;5.72;;;;;;;;;;5112351;28;20102;-83
2022/12/20 13:19:21;;;;;;;8.00;5.45;;;;;;;;;;5073468;28;20052;-83
2022/12/20 13:21:52;;;;;;;8.75;5.57;;;;;;;;;;5072004;28;20048;-84
2022/12/20 13:24:35;;;;;;;8.10;5.80;;;;;;;;;;5084405;28;20102;-84
2022/12/20 13:27:03;;;;;;;6.60;5.13;;;;;;;;;;5093087;28;20048;-84
2022/12/20 13:29:33;;;;;;;11.93;5.72;;;;;;;;;;5092724;28;20580;-85
2022/12/20 13:32:00;;;;;;;8.85;5.75;;;;;;;;;;5096475;28;20055;-85
2022/12/20 13:34:35;;;;;;;7.72;6.25;;;;;;;;;;5078550;28;20055;-82
2022/12/20 13:37:02;;;;;;;7.28;4.88;;;;;;;;;;5113591;28;20051;-83
2022/12/20 13:39:32;;;;;;;8.60;5.88;;;;;;;;;;5113367;28;20063;-83
2022/12/20 13:42:17;;;;;;;9.63;6.45;;;;;;;;;;5095128;28;20078;-82
2022/12/20 13:44:47;;;;;;;7.43;6.07;;;;;;;;;;5113130;28;20047;-83
2022/12/20 13:47:16;;;;;;;10.45;6.53;;;;;;;;;;5077985;28;20050;-83
2022/12/20 13:49:43;;;;;;;10.07;6.68;;;;;;;;;;5112862;28;20122;-83
2022/12/20 13:52:15;;;;;;;13.93;6.63;;;;;;;;;;5094972;28;20113;-84
2022/12/20 13:54:43;;;;;;;8.70;6.20;;;;;;;;;;5094741;28;20066;-85
2022/12/20 13:57:15;;;;;;;9.55;6.18;;;;;;;;;;5094997;28;20131;-85
2022/12/20 13:59:44;;;;;;;9.40;6.53;;;;;;;;;;5094751;28;20408;-85
2022/12/20 14:02:25;;;;;;;9.20;6.22;;;11.40;99.90;;;;;;5106650;28;20505;-84
2022/12/20 14:05:02;;;;;;;9.88;7.05;;;11.20;99.90;;;;;;5114585;27;20087;-84
2022/12/20 14:07:29;;;;;;;8.43;6.78;;;11.20;99.90;;;;;;5100826;27;20447;-85
2022/12/20 14:09:59;;;;;;;7.90;6.25;;;11.20;99.90;;;;;;5077473;28;20138;-85
2022/12/20 14:12:26;;;;;;;9.82;7.28;;;11.20;99.90;;;;;;5094612;28;20496;-85
2022/12/20 14:14:52;;;;;;;8.98;7.10;;;11.10;99.90;;;;;;5112254;28;20089;-85
2022/12/20 14:17:25;;;;;;;10.25;7.35;;;11.10;99.90;;;;;;5090827;28;20395;-85
2022/12/20 14:20:19;;;;;;;9.77;7.50;;;11.10;99.90;;;;;;5074440;28;20463;-85
2022/12/20 14:22:53;;;;;;;12.15;7.68;;;11.10;99.90;;;;;;5092270;28;20120;-85
2022/12/20 14:25:36;;;;;;;10.07;7.13;;;11.10;99.90;;;;;;5074814;28;20147;-85
2022/12/20 14:28:03;;;;;;;9.07;7.50;;;11.10;99.90;;;;;;5075347;28;20058;-85
2022/12/20 14:30:39;;;;;;;10.70;7.47;;;11.00;99.90;;;;;;5092775;28;20052;-85
2022/12/20 14:33:29;;;;;;;11.88;7.45;;;11.00;99.90;;;;;;5091356;28;20056;-85
2022/12/20 14:35:55;;;;;;;9.50;8.38;;;11.00;99.90;;;;;;5092363;28;20052;-85
2022/12/20 14:38:32;;;;;;;11.45;8.35;;;10.90;99.90;;;;;;5092369;28;20134;-85